Frankfurt Airport

EDDF · Hessen, Deutschland

METAR-Geschichte EDDF · Rhein-Main-Flughafen

Unten siehst du die METARs der letzten paar Tage. Wähle ein Jahr, um ältere METARs ab dem Jahr 2007 zu durchsuchen.

20. Juli 2024

Uhrzeit Code Wetter Temp. Sichtweite Wolkendecke Wind METAR/SPECI
02:20
V
22 °C 10 km+ - 060° 060° 4 kt METAR EDDF 200020Z AUTO 06004KT CAVOK 22/15 Q1014 NOSIG
01:50
V
23 °C 10 km+ - 040° 040° 4 kt METAR EDDF 192350Z AUTO 04004KT CAVOK 23/15 Q1014 NOSIG
01:20
V
23 °C 10 km+ - 030° 030° 6 kt METAR EDDF 192320Z AUTO 03006KT CAVOK 23/15 Q1014 NOSIG
00:50
V
22 °C 10 km+ - 020° 020° 6 kt METAR EDDF 192250Z AUTO 02006KT CAVOK 22/15 Q1015 NOSIG
00:20
V
23 °C 10 km+ - 020° 020° 6 kt METAR EDDF 192220Z AUTO 02006KT CAVOK 23/15 Q1015 NOSIG

19. Juli 2024

Uhrzeit Code Wetter Temp. Sichtweite Wolkendecke Wind METAR/SPECI
23:50
V
23 °C 10 km+ - 020° 020° 6 kt METAR EDDF 192150Z AUTO 02006KT CAVOK 23/15 Q1015 NOSIG
23:20
V
25 °C 10 km+ - 020° 020° 7 kt METAR EDDF 192120Z AUTO 02007KT CAVOK 25/15 Q1015 NOSIG
22:50
V
26 °C 10 km+ - 020° 020° 8 kt METAR EDDF 192050Z AUTO 02008KT CAVOK 26/15 Q1015 NOSIG
22:20
V
27 °C 10 km+ - 020° 020° 8 kt METAR EDDF 192020Z AUTO 02008KT CAVOK 27/15 Q1015 NOSIG
21:50
V
27 °C 10 km+ - 010° 010° 7 kt METAR EDDF 191950Z AUTO 01007KT CAVOK 27/15 Q1015 NOSIG
21:20
V
28 °C 10 km+ - 020° 020° 8 kt METAR EDDF 191920Z AUTO 02008KT 350V050 CAVOK 28/15 Q1015 NOSIG
20:50
V
29 °C 10 km+ - 050° 050° 7 kt METAR EDDF 191850Z AUTO 05007KT CAVOK 29/15 Q1015 NOSIG
20:20
V
29 °C 10 km+ - 050° 050° 6 kt METAR EDDF 191820Z AUTO 05006KT 020V080 CAVOK 29/15 Q1015 NOSIG
19:50
V
30 °C 10 km+ - 020° 020° 6 kt METAR EDDF 191750Z AUTO 02006KT 350V070 CAVOK 30/15 Q1015 NOSIG
19:20
V
31 °C 10 km+ - Var Var 3 kt METAR EDDF 191720Z AUTO VRB03KT CAVOK 31/15 Q1015 NOSIG
18:50
V
31 °C 10 km+ - 050° 050° 5 kt METAR EDDF 191650Z AUTO 05005KT 360V100 CAVOK 31/15 Q1015 NOSIG
18:20
V
31 °C 10 km+ - 030° 030° 8 kt METAR EDDF 191620Z AUTO 03008KT 350V100 CAVOK 31/15 Q1015 NOSIG
17:50
V
32 °C 10 km+ - 070° 070° 6 kt METAR EDDF 191550Z AUTO 07006KT 360V160 CAVOK 32/15 Q1016 NOSIG
17:20
V
31 °C 10 km+ - 030° 030° 3 kt METAR EDDF 191520Z AUTO 03003KT 340V070 CAVOK 31/15 Q1016 NOSIG
16:50
V
31 °C 10 km+ - 020° 020° 5 kt METAR EDDF 191450Z AUTO 02005KT 330V100 CAVOK 31/15 Q1016 NOSIG
16:20
V
31 °C 10 km+ - 050° 050° 6 kt METAR EDDF 191420Z AUTO 05006KT 340V080 CAVOK 31/15 Q1016 NOSIG
15:50
V
31 °C 10 km+ - 050° 050° 5 kt METAR EDDF 191350Z AUTO 05005KT 350V130 CAVOK 31/15 Q1017 NOSIG
15:20
V
30 °C 10 km+ - Var Var 6 kt METAR EDDF 191320Z AUTO VRB06KT CAVOK 30/15 Q1017 NOSIG
14:50
V
31 °C 10 km+ - Var Var 5 kt METAR EDDF 191250Z AUTO VRB05KT CAVOK 31/14 Q1017 NOSIG
14:20
V
31 °C 10 km+ - 090° 090° 6 kt METAR EDDF 191220Z AUTO 09006KT 030V130 CAVOK 31/14 Q1018 NOSIG
13:50
V
30 °C 10 km+ - 100° 100° 4 kt METAR EDDF 191150Z AUTO 10004KT 020V180 CAVOK 30/14 Q1018 NOSIG
13:20
V
30 °C 10 km+ - 070° 070° 8 kt METAR EDDF 191120Z AUTO 07008KT 020V120 CAVOK 30/14 Q1018 NOSIG
12:50
V
29 °C 10 km+ - 080° 080° 6 kt METAR EDDF 191050Z AUTO 08006KT 020V130 CAVOK 29/15 Q1018 NOSIG
12:20
V
28 °C 10 km+ - 080° 080° 6 kt METAR EDDF 191020Z AUTO 08006KT 050V110 CAVOK 28/14 Q1019 NOSIG
11:50
V
28 °C 10 km+ - 020° 020° 6 kt METAR EDDF 190950Z AUTO 02006KT 330V080 CAVOK 28/15 Q1019 NOSIG
11:20
V
27 °C 10 km+ - 010° 010° 6 kt METAR EDDF 190920Z AUTO 01006KT 330V080 CAVOK 27/15 Q1019 NOSIG
10:50
V
26 °C 10 km+ - 030° 030° 6 kt METAR EDDF 190850Z AUTO 03006KT 330V080 CAVOK 26/15 Q1019 NOSIG
10:20
V
25 °C 10 km+ - 030° 030° 7 kt METAR EDDF 190820Z AUTO 03007KT 330V100 CAVOK 25/14 Q1020 NOSIG
09:50
V
24 °C 10 km+ - 050° 050° 6 kt METAR EDDF 190750Z AUTO 05006KT 020V090 CAVOK 24/14 Q1020 NOSIG
09:20
V
23 °C 10 km+ - 020° 020° 6 kt METAR EDDF 190720Z AUTO 02006KT 350V060 CAVOK 23/14 Q1020 NOSIG
08:50
V
23 °C 10 km+ - 030° 030° 7 kt METAR EDDF 190650Z AUTO 03007KT CAVOK 23/14 Q1020 NOSIG
08:20
V
22 °C 10 km+ - 040° 040° 7 kt METAR EDDF 190620Z AUTO 04007KT CAVOK 22/14 Q1020 NOSIG
07:50
V
21 °C 10 km+ - 040° 040° 7 kt METAR EDDF 190550Z AUTO 04007KT CAVOK 21/14 Q1020 NOSIG
07:20
V
20 °C 10 km+ - 030° 030° 6 kt METAR EDDF 190520Z AUTO 03006KT CAVOK 20/13 Q1020 NOSIG
06:50
V
19 °C 10 km+ - 030° 030° 5 kt METAR EDDF 190450Z AUTO 03005KT CAVOK 19/14 Q1020 NOSIG
06:20
V
19 °C 10 km+ - 040° 040° 6 kt METAR EDDF 190420Z AUTO 04006KT CAVOK 19/13 Q1020 NOSIG
05:50
V
19 °C 10 km+ - 030° 030° 4 kt METAR EDDF 190350Z AUTO 03004KT CAVOK 19/13 Q1020 NOSIG
05:20
V
19 °C 10 km+ - 030° 030° 6 kt METAR EDDF 190320Z AUTO 03006KT CAVOK 19/13 Q1020 NOSIG
04:50
V
18 °C 10 km+ - 040° 040° 5 kt METAR EDDF 190250Z AUTO 04005KT CAVOK 18/13 Q1020 NOSIG
04:20
V
18 °C 10 km+ - 070° 070° 3 kt METAR EDDF 190220Z AUTO 07003KT CAVOK 18/13 Q1020 NOSIG
03:50
V
18 °C 10 km+ - 070° 070° 4 kt METAR EDDF 190150Z AUTO 07004KT CAVOK 18/13 Q1020 NOSIG
03:20
V
20 °C 10 km+ - 060° 060° 5 kt METAR EDDF 190120Z AUTO 06005KT CAVOK 20/13 Q1020 NOSIG
02:50
V
20 °C 10 km+ - 020° 020° 4 kt METAR EDDF 190050Z AUTO 02004KT CAVOK 20/13 Q1021 NOSIG
02:20
V
20 °C 10 km+ - 020° 020° 6 kt METAR EDDF 190020Z AUTO 02006KT CAVOK 20/13 Q1021 NOSIG
01:50
V
21 °C 10 km+ - 020° 020° 7 kt METAR EDDF 182350Z AUTO 02007KT CAVOK 21/13 Q1021 NOSIG
01:20
V
21 °C 10 km+ - 020° 020° 5 kt METAR EDDF 182320Z AUTO 02005KT CAVOK 21/13 Q1021 NOSIG
00:50
V
21 °C 10 km+ - 020° 020° 7 kt METAR EDDF 182250Z AUTO 02007KT CAVOK 21/13 Q1021 NOSIG
00:20
V
21 °C 10 km+ - 020° 020° 9 kt METAR EDDF 182220Z AUTO 02009KT CAVOK 21/13 Q1021 NOSIG

18. Juli 2024

Uhrzeit Code Wetter Temp. Sichtweite Wolkendecke Wind METAR/SPECI
23:50
V
20 °C 10 km+ - 020° 020° 7 kt METAR EDDF 182150Z AUTO 02007KT CAVOK 20/13 Q1021 NOSIG
23:20
V
21 °C 10 km+ - 010° 010° 7 kt METAR EDDF 182120Z AUTO 01007KT CAVOK 21/13 Q1021 NOSIG
22:50
V
23 °C 10 km+ - 010° 010° 7 kt METAR EDDF 182050Z AUTO 01007KT CAVOK 23/13 Q1021 NOSIG
22:20
V
23 °C 10 km+ - 030° 030° 5 kt METAR EDDF 182020Z AUTO 03005KT 360V060 CAVOK 23/14 Q1021 NOSIG
21:50
V
25 °C 10 km+ - 070° 070° 7 kt METAR EDDF 181950Z AUTO 07007KT CAVOK 25/13 Q1021 NOSIG
21:20
V
25 °C 10 km+ - 060° 060° 7 kt METAR EDDF 181920Z AUTO 06007KT CAVOK 25/13 Q1020 NOSIG
20:50
V
27 °C 10 km+ - 060° 060° 6 kt METAR EDDF 181850Z AUTO 06006KT CAVOK 27/12 Q1020 NOSIG
20:20
V
27 °C 10 km+ - 070° 070° 6 kt METAR EDDF 181820Z AUTO 07006KT 020V110 CAVOK 27/12 Q1020 NOSIG
19:50
V
28 °C 10 km+ - 060° 060° 7 kt METAR EDDF 181750Z AUTO 06007KT 030V090 CAVOK 28/12 Q1020 NOSIG
19:20
V
28 °C 10 km+ - 090° 090° 6 kt METAR EDDF 181720Z AUTO 09006KT 050V120 CAVOK 28/12 Q1020 NOSIG
18:50
V
29 °C 10 km+ - 080° 080° 7 kt METAR EDDF 181650Z AUTO 08007KT 050V110 CAVOK 29/12 Q1020 NOSIG
18:20
V
28 °C 10 km+ - 040° 040° 5 kt METAR EDDF 181620Z AUTO 04005KT 010V100 CAVOK 28/12 Q1020 NOSIG
17:50
V
29 °C 10 km+ - 110° 110° 6 kt METAR EDDF 181550Z AUTO 11006KT 030V170 CAVOK 29/12 Q1021 NOSIG
17:20
V
30 °C 10 km+ - 110° 110° 6 kt METAR EDDF 181520Z AUTO 11006KT 050V170 CAVOK 30/12 Q1021 NOSIG
16:50
V
29 °C 10 km+ - 070° 070° 7 kt METAR EDDF 181450Z AUTO 07007KT 020V120 CAVOK 29/12 Q1021 NOSIG
16:20
V
29 °C 10 km+ - 070° 070° 6 kt METAR EDDF 181420Z AUTO 07006KT 360V160 CAVOK 29/12 Q1021 NOSIG
15:50
V
29 °C 10 km+ - 090° 090° 7 kt METAR EDDF 181350Z AUTO 09007KT 020V140 CAVOK 29/12 Q1021 NOSIG
15:20
V
29 °C 10 km+ - 100° 100° 8 kt METAR EDDF 181320Z AUTO 10008KT 050V150 CAVOK 29/12 Q1021 NOSIG
14:50
V
28 °C 10 km+ - 110° 110° 5 kt METAR EDDF 181250Z AUTO 11005KT 040V170 CAVOK 28/12 Q1021 NOSIG
14:20
V
28 °C 10 km+ - 080° 080° 6 kt METAR EDDF 181220Z AUTO 08006KT 360V130 CAVOK 28/12 Q1022 NOSIG
13:50
V
28 °C 10 km+ - 090° 090° 7 kt METAR EDDF 181150Z AUTO 09007KT 010V130 CAVOK 28/12 Q1022 NOSIG
13:20
V
27 °C 10 km+ - 040° 040° 6 kt METAR EDDF 181120Z AUTO 04006KT 300V080 CAVOK 27/12 Q1022 NOSIG
12:50
V
27 °C 10 km+ - 040° 040° 7 kt METAR EDDF 181050Z AUTO 04007KT 350V070 CAVOK 27/13 Q1022 NOSIG
12:20
V
26 °C 10 km+ - 060° 060° 7 kt METAR EDDF 181020Z AUTO 06007KT 020V100 CAVOK 26/14 Q1022 NOSIG
11:50
V
25 °C 10 km+ - 030° 030° 7 kt METAR EDDF 180950Z AUTO 03007KT 350V090 CAVOK 25/14 Q1022 NOSIG
11:20
V
25 °C 10 km+ - 050° 050° 7 kt METAR EDDF 180920Z AUTO 05007KT 010V080 CAVOK 25/14 Q1022 NOSIG
10:50
V
24 °C 10 km+ - 050° 050° 7 kt METAR EDDF 180850Z AUTO 05007KT 020V090 CAVOK 24/14 Q1022 NOSIG
10:20
V
23 °C 10 km+ - 040° 040° 8 kt METAR EDDF 180820Z AUTO 04008KT 010V080 CAVOK 23/14 Q1023 NOSIG
09:50
V
23 °C 10 km+ - 060° 060° 6 kt METAR EDDF 180750Z AUTO 06006KT 020V100 CAVOK 23/15 Q1023 NOSIG
09:20
V
22 °C 10 km+ - 030° 030° 6 kt METAR EDDF 180720Z AUTO 03006KT 360V090 CAVOK 22/14 Q1023 NOSIG
08:50
V
21 °C 10 km+ - 020° 020° 6 kt METAR EDDF 180650Z AUTO 02006KT 350V050 CAVOK 21/14 Q1023 NOSIG
08:20
V
20 °C 10 km+ - 010° 010° 5 kt METAR EDDF 180620Z AUTO 01005KT 340V040 CAVOK 20/13 Q1023 NOSIG
07:50
V
19 °C 10 km+ - 010° 010° 6 kt METAR EDDF 180550Z AUTO 01006KT CAVOK 19/13 Q1023 NOSIG
07:20
V
19 °C 10 km+ - 030° 030° 5 kt METAR EDDF 180520Z AUTO 03005KT 340V070 CAVOK 19/13 Q1023 NOSIG
06:50
V
18 °C 10 km+ - 060° 060° 5 kt METAR EDDF 180450Z AUTO 06005KT CAVOK 18/13 Q1023 NOSIG
06:20
V
17 °C 10 km+ - 030° 030° 5 kt METAR EDDF 180420Z AUTO 03005KT CAVOK 17/13 Q1022 NOSIG
05:50
V
16 °C 10 km+ - 020° 020° 6 kt METAR EDDF 180350Z AUTO 02006KT CAVOK 16/13 Q1022 NOSIG
05:20
V
17 °C 10 km+ - 030° 030° 5 kt METAR EDDF 180320Z AUTO 03005KT CAVOK 17/13 Q1022 NOSIG
04:50
V
17 °C 10 km+ - 020° 020° 5 kt METAR EDDF 180250Z AUTO 02005KT CAVOK 17/13 Q1022 NOSIG
04:20
V
17 °C 10 km+ - 020° 020° 5 kt METAR EDDF 180220Z AUTO 02005KT CAVOK 17/13 Q1022 NOSIG
03:50
V
16 °C 10 km+ - 060° 060° 5 kt METAR EDDF 180150Z AUTO 06005KT CAVOK 16/14 Q1022 NOSIG
03:20
V
16 °C 10 km+ - 080° 080° 4 kt METAR EDDF 180120Z AUTO 08004KT CAVOK 16/14 Q1022 NOSIG
02:50
V
17 °C 10 km+ - 060° 060° 4 kt METAR EDDF 180050Z AUTO 06004KT 030V110 CAVOK 17/13 Q1022 NOSIG
02:20
V
18 °C 10 km+ - 060° 060° 5 kt METAR EDDF 180020Z AUTO 06005KT CAVOK 18/14 Q1022 NOSIG
01:50
V
19 °C 10 km+ - 030° 030° 5 kt METAR EDDF 172350Z AUTO 03005KT CAVOK 19/13 Q1022 NOSIG
01:20
V
19 °C 10 km+ - 010° 010° 8 kt METAR EDDF 172320Z AUTO 01008KT CAVOK 19/14 Q1022 NOSIG
00:50
V
19 °C 10 km+ - 050° 050° 5 kt METAR EDDF 172250Z AUTO 05005KT CAVOK 19/14 Q1022 NOSIG
00:20
V
18 °C 10 km+ - 010° 010° 6 kt METAR EDDF 172220Z AUTO 01006KT CAVOK 18/14 Q1022 NOSIG

17. Juli 2024

Uhrzeit Code Wetter Temp. Sichtweite Wolkendecke Wind METAR/SPECI
23:50
V
18 °C 10 km+ - 010° 010° 5 kt METAR EDDF 172150Z AUTO 01005KT CAVOK 18/14 Q1022 NOSIG
23:20
V
18 °C 10 km+ - 040° 040° 3 kt METAR EDDF 172120Z AUTO 04003KT 360V070 CAVOK 18/14 Q1022 NOSIG
22:50
V
18 °C 10 km+ - 350° 350° 5 kt METAR EDDF 172050Z AUTO 35005KT 320V020 CAVOK 18/14 Q1022 NOSIG
22:20
V
20 °C 10 km+ - 070° 070° 5 kt METAR EDDF 172020Z AUTO 07005KT CAVOK 20/14 Q1022 NOSIG
21:50
V
20 °C 10 km+ - 020° 020° 5 kt METAR EDDF 171950Z AUTO 02005KT 330V070 CAVOK 20/14 Q1022 NOSIG
21:20
V
21 °C 10 km+ - 360° 360° 4 kt METAR EDDF 171920Z AUTO 36004KT 330V050 CAVOK 21/14 Q1022 NOSIG
20:50
V
23 °C 10 km+ - 010° 010° 5 kt METAR EDDF 171850Z AUTO 01005KT CAVOK 23/13 Q1021 NOSIG
20:20
V
25 °C 10 km+ - 350° 350° 3 kt METAR EDDF 171820Z AUTO 35003KT 310V060 CAVOK 25/14 Q1021 NOSIG
19:50
V
25 °C 10 km+ - Var Var 3 kt METAR EDDF 171750Z AUTO VRB03KT CAVOK 25/13 Q1021 NOSIG
19:20
V
25 °C 10 km+ - 330° 330° 4 kt METAR EDDF 171720Z AUTO 33004KT 300V030 CAVOK 25/14 Q1021 NOSIG
18:50
V
26 °C 10 km+ - 300° 300° 5 kt METAR EDDF 171650Z AUTO 30005KT 270V330 CAVOK 26/13 Q1021 NOSIG
18:20
V
26 °C 10 km+ - Var Var 5 kt METAR EDDF 171620Z AUTO VRB05KT CAVOK 26/13 Q1021 NOSIG
17:50
V
26 °C 10 km+ - 020° 020° 5 kt METAR EDDF 171550Z AUTO 02005KT 320V100 CAVOK 26/13 Q1021 NOSIG
17:20
V
26 °C 10 km+ - 320° 320° 5 kt METAR EDDF 171520Z AUTO 32005KT 230V010 CAVOK 26/13 Q1021 NOSIG
16:50
V
26 °C 10 km+ - Var Var 5 kt METAR EDDF 171450Z AUTO VRB05KT CAVOK 26/12 Q1021 NOSIG
16:20
V
26 °C 10 km+ - 240° 240° 7 kt METAR EDDF 171420Z AUTO 24007KT 210V300 CAVOK 26/13 Q1021 NOSIG
15:50
V
26 °C 10 km+ - 180° 180° 5 kt METAR EDDF 171350Z AUTO 18005KT 090V240 9999 SCT048 26/12 Q1021 NOSIG
15:20
V
25 °C 10 km+ - 260° 260° 7 kt METAR EDDF 171320Z AUTO 26007KT 180V340 9999 FEW046 25/13 Q1021 NOSIG
14:50
V
25 °C 10 km+ - Var Var 4 kt METAR EDDF 171250Z AUTO VRB04KT 9999 FEW042 25/13 Q1021 NOSIG
14:20
V
24 °C 10 km+ - 210° 210° 6 kt METAR EDDF 171220Z AUTO 21006KT 140V260 9999 FEW043 24/14 Q1021 NOSIG
13:50
V
24 °C 10 km+ - 220° 220° 6 kt METAR EDDF 171150Z AUTO 22006KT 150V320 9999 FEW041 24/14 Q1021 NOSIG
13:20
V
24 °C 10 km+ - 220° 220° 7 kt METAR EDDF 171120Z AUTO 22007KT 190V300 9999 FEW038 24/13 Q1021 NOSIG
12:50
V
23 °C 10 km+ - 250° 250° 8 kt METAR EDDF 171050Z AUTO 25008KT 9999 FEW048 23/13 Q1021 NOSIG
12:20
V
23 °C 10 km+ - 270° 270° 7 kt METAR EDDF 171020Z AUTO 27007KT 220V320 9999 FEW035 23/13 Q1021 NOSIG
11:50
V
22 °C 10 km+ - 250° 250° 7 kt METAR EDDF 170950Z AUTO 25007KT 200V330 9999 FEW033 22/13 Q1021 NOSIG
11:20
V
22 °C 10 km+ - 260° 260° 10 kt METAR EDDF 170920Z AUTO 26010KT 220V290 9999 SCT032 SCT040 22/13 Q1021 NOSIG
10:50
V
22 °C 10 km+ - 250° 250° 8 kt METAR EDDF 170850Z AUTO 25008KT 210V310 9999 FEW030 22/13 Q1021 NOSIG
10:20
V
21 °C 10 km+ - 230° 230° 8 kt METAR EDDF 170820Z AUTO 23008KT 200V260 CAVOK 21/13 Q1021 NOSIG
09:50
V
21 °C 10 km+ - 220° 220° 8 kt METAR EDDF 170750Z AUTO 22008KT 170V270 9999 FEW026 21/14 Q1021 NOSIG
09:20
V
20 °C 10 km+ - 230° 230° 8 kt METAR EDDF 170720Z AUTO 23008KT 200V260 CAVOK 20/14 Q1021 NOSIG
08:50
V
19 °C 10 km+ - 220° 220° 7 kt METAR EDDF 170650Z AUTO 22007KT CAVOK 19/13 Q1020 NOSIG
08:20
V
18 °C 10 km+ - 220° 220° 5 kt METAR EDDF 170620Z AUTO 22005KT CAVOK 18/13 Q1020 NOSIG
07:50
V
17 °C 10 km+ - 220° 220° 4 kt METAR EDDF 170550Z AUTO 22004KT 190V250 CAVOK 17/13 Q1020 NOSIG
Eine Änderung melden